Time;durP1;ratioP1;P1;durP2;ratioP2;P2;SDS_P1;SDS_P2;PMS_P1;PMS_P2;Temp;Humidity;BMP_temperature;BMP_pressure;BME280_temperature;BME280_humidity;BME280_pressure;Samples;Min_cycle;Max_cycle;Signal;HPM_P1;HPM_P2
2023/12/22 00:00:55;;;;;;;0.10;0.10;;;;;;;;;;4977236;28;20254;-76
2023/12/22 00:03:21;;;;;;;0.20;0.20;;;;;;;;;;4986937;28;20210;-76
2023/12/22 00:05:47;;;;;;;0.20;0.20;;;;;;;;;;4976955;28;20247;-78
2023/12/22 00:08:15;;;;;;;0.20;0.20;;;;;;;;;;4986669;28;20270;-77
2023/12/22 00:10:42;;;;;;;0.20;0.20;;;;;;;;;;4977280;28;20428;-77
2023/12/22 00:13:08;;;;;;;0.20;0.20;;;;;;;;;;4986613;28;20448;-77
2023/12/22 00:15:34;;;;;;;0.20;0.20;;;;;;;;;;4977030;28;20322;-77
2023/12/22 00:18:01;;;;;;;0.20;0.20;;;;;;;;;;4986348;28;20254;-76
2023/12/22 00:20:27;;;;;;;0.20;0.20;;;;;;;;;;4977101;28;20223;-76
2023/12/22 00:22:53;;;;;;;0.20;0.20;;;;;;;;;;4986304;28;20223;-77
2023/12/22 00:25:21;;;;;;;0.20;0.20;;;;;;;;;;4976948;28;20207;-75
2023/12/22 00:27:48;;;;;;;0.20;0.20;;;;;;;;;;4986246;28;20265;-76
2023/12/22 00:30:14;;;;;;;0.20;0.20;;;;;;;;;;4976798;28;20233;-77
2023/12/22 00:32:41;;;;;;;2.10;2.00;;;;;;;;;;4985742;28;20491;-76
2023/12/22 00:35:07;;;;;;;0.20;0.20;;;;;;;;;;4987100;28;20219;-76
2023/12/22 00:37:34;;;;;;;0.20;0.20;;;;;;;;;;4959392;28;20227;-77
2023/12/22 00:40:00;;;;;;;0.27;0.27;;;;;;;;;;4987045;28;20235;-76
2023/12/22 00:42:28;;;;;;;0.20;0.20;;;;;;;;;;4974344;28;20361;-77
2023/12/22 00:44:55;;;;;;;0.20;0.20;;;;;;;;;;4986941;28;20277;-76
2023/12/22 00:47:21;;;;;;;0.20;0.20;;;;;;;;;;4975375;28;20243;-77
2023/12/22 00:49:47;;;;;;;0.20;0.20;;;;;;;;;;4986541;28;20265;-76
2023/12/22 00:52:14;;;;;;;0.20;0.20;;;;;;;;;;4975211;28;20269;-76
2023/12/22 00:54:40;;;;;;;3.27;0.53;;;;;;;;;;4986461;28;20279;-76
2023/12/22 00:57:06;;;;;;;0.20;0.20;;;;;;;;;;4975290;28;20574;-77
2023/12/22 00:59:34;;;;;;;0.20;0.20;;;;;;;;;;4986772;28;20273;-76
2023/12/22 01:02:01;;;;;;;0.20;0.20;;;;;;;;;;4975464;28;20495;-76
2023/12/22 01:04:27;;;;;;;0.20;0.20;;;;;;;;;;4986258;28;20276;-77
2023/12/22 01:06:54;;;;;;;0.20;0.20;;;;;;;;;;4975219;28;20250;-76
2023/12/22 01:09:20;;;;;;;0.20;0.20;;;;;;;;;;4986492;28;20209;-75
2023/12/22 01:11:47;;;;;;;0.20;0.20;;;;;;;;;;4975385;28;20242;-77
2023/12/22 01:14:14;;;;;;;0.20;0.20;;;;;;;;;;4986307;28;20210;-77
2023/12/22 01:16:41;;;;;;;0.20;0.20;;;;;;;;;;4975140;28;20255;-76
2023/12/22 01:19:08;;;;;;;0.20;0.20;;;;;;;;;;4986005;28;20273;-76
2023/12/22 01:21:34;;;;;;;0.10;0.10;;;;;;;;;;4975231;28;20250;-76
2023/12/22 01:24:01;;;;;;;0.20;0.20;;;;;;;;;;4985818;28;20268;-76
2023/12/22 01:26:27;;;;;;;0.20;0.20;;;;;;;;;;4975250;28;20243;-77
2023/12/22 01:28:53;;;;;;;0.20;0.20;;;;;;;;;;4985818;28;20495;-76
2023/12/22 01:31:20;;;;;;;0.20;0.20;;;;;;;;;;4975069;28;20244;-76
2023/12/22 01:33:48;;;;;;;0.20;0.20;;;;;;;;;;4985713;28;20288;-76
2023/12/22 01:36:14;;;;;;;0.20;0.20;;;;;;;;;;4975045;28;20243;-77
2023/12/22 01:38:40;;;;;;;0.20;0.20;;;;;;;;;;4985178;28;20231;-77
2023/12/22 01:41:08;;;;;;;0.20;0.20;;;;;;;;;;4974891;28;20248;-77
2023/12/22 01:43:34;;;;;;;0.20;0.20;;;;;;;;;;4985181;28;20215;-77
2023/12/22 01:46:02;;;;;;;0.20;0.20;;;;;;;;;;4974952;28;20254;-77
2023/12/22 01:48:28;;;;;;;0.20;0.20;;;;;;;;;;4984971;28;20246;-76
2023/12/22 01:50:58;;;;;;;0.20;0.20;;;;;;;;;;4975020;28;20305;-77
2023/12/22 01:53:25;;;;;;;0.20;0.20;;;;;;;;;;4984402;28;20452;-77
2023/12/22 01:55:51;;;;;;;0.20;0.20;;;;;;;;;;4974905;28;20258;-77
2023/12/22 01:58:18;;;;;;;0.17;0.17;;;;;;;;;;4984695;28;20231;-77
2023/12/22 02:00:44;;;;;;;0.20;0.20;;;;;;;;;;4974861;28;20274;-75
2023/12/22 02:03:11;;;;;;;0.20;0.20;;;;;;;;;;4984674;28;20208;-77
2023/12/22 02:05:37;;;;;;;0.10;0.10;;;;;;;;;;4974881;28;20255;-77
2023/12/22 02:08:06;;;;;;;0.20;0.20;;;;;;;;;;4984255;28;20239;-77
2023/12/22 02:10:32;;;;;;;0.20;0.20;;;;;;;;;;4975051;28;20349;-77
2023/12/22 02:12:59;;;;;;;0.20;0.20;;;;;;;;;;4984346;28;20236;-77
2023/12/22 02:15:25;;;;;;;0.20;0.20;;;;;;;;;;4975012;28;20399;-76
2023/12/22 02:17:55;;;;;;;0.20;0.20;;;;;;;;;;4984089;28;20199;-76
2023/12/22 02:20:22;;;;;;;0.10;0.10;;;;;;;;;;4975083;28;20275;-77
2023/12/22 02:22:53;;;;;;;0.20;0.20;;;;;;;;;;4983812;28;20245;-77
2023/12/22 02:25:19;;;;;;;0.20;0.20;;;;;;;;;;4974757;28;20196;-76
2023/12/22 02:27:48;;;;;;;0.20;0.20;;;;;;;;;;4984131;28;20534;-77
2023/12/22 02:30:21;;;;;;;0.20;0.20;;;;;;;;;;4974711;28;20206;-76
2023/12/22 02:32:49;;;;;;;0.20;0.20;;;;;;;;;;4983924;28;20208;-77
2023/12/22 02:35:18;;;;;;;0.20;0.20;;;;;;;;;;4974552;28;20209;-77
2023/12/22 02:37:46;;;;;;;0.20;0.20;;;;;;;;;;4983757;28;20499;-77
2023/12/22 02:40:14;;;;;;;0.10;0.10;;;;;;;;;;4974884;28;20389;-77
2023/12/22 02:42:41;;;;;;;0.40;0.40;;;;;;;;;;4983749;28;20210;-77
2023/12/22 02:45:13;;;;;;;0.20;0.20;;;;;;;;;;4984571;28;20242;-76
2023/12/22 02:47:40;;;;;;;0.20;0.20;;;;;;;;;;4957573;28;20218;-77
2023/12/22 02:50:07;;;;;;;0.20;0.20;;;;;;;;;;4984896;28;20205;-77
2023/12/22 02:52:33;;;;;;;0.20;0.20;;;;;;;;;;4973360;28;20319;-77
2023/12/22 02:54:59;;;;;;;0.20;0.20;;;;;;;;;;4984846;28;20247;-77
2023/12/22 02:57:27;;;;;;;0.20;0.20;;;;;;;;;;4973702;28;20243;-77
2023/12/22 02:59:54;;;;;;;0.20;0.20;;;;;;;;;;4984424;28;20230;-77
2023/12/22 03:02:20;;;;;;;0.20;0.20;;;;;;;;;;4973334;28;20305;-77
2023/12/22 03:04:47;;;;;;;0.20;0.20;;;;;;;;;;4984379;28;20226;-77
2023/12/22 03:07:13;;;;;;;0.80;0.80;;;;;;;;;;4976729;28;20494;-77
2023/12/22 03:09:40;;;;;;;0.20;0.20;;;;;;;;;;4988638;28;20243;-77
2023/12/22 03:12:06;;;;;;;0.20;0.20;;;;;;;;;;4977380;28;20242;-77
2023/12/22 03:14:34;;;;;;;0.20;0.20;;;;;;;;;;4988621;28;20421;-77
2023/12/22 03:17:00;;;;;;;0.30;0.30;;;;;;;;;;4977211;28;20428;-77
2023/12/22 03:19:27;;;;;;;0.20;0.20;;;;;;;;;;4988517;28;20227;-77
2023/12/22 03:21:53;;;;;;;0.10;0.10;;;;;;;;;;4977157;28;20243;-77
2023/12/22 03:24:20;;;;;;;0.20;0.20;;;;;;;;;;4987852;28;20231;-77
2023/12/22 03:26:47;;;;;;;0.20;0.20;;;;;;;;;;4977252;28;20264;-77
2023/12/22 03:29:13;;;;;;;0.20;0.20;;;;;;;;;;4988207;28;20235;-77
2023/12/22 03:31:41;;;;;;;0.13;0.13;;;;;;;;;;4977314;28;20243;-77
2023/12/22 03:34:07;;;;;;;0.20;0.20;;;;;;;;;;4988003;28;20211;-77
2023/12/22 03:36:34;;;;;;;0.20;0.20;;;;;;;;;;4977325;28;20253;-77
2023/12/22 03:39:00;;;;;;;0.20;0.20;;;;;;;;;;4987865;28;20230;-77
2023/12/22 03:41:28;;;;;;;0.20;0.20;;;;;;;;;;4977325;28;20561;-77
2023/12/22 03:43:55;;;;;;;0.20;0.20;;;;;;;;;;4987747;28;20206;-77
2023/12/22 03:46:21;;;;;;;0.30;0.30;;;;;;;;;;4977143;28;20261;-76
2023/12/22 03:48:49;;;;;;;0.20;0.20;;;;;;;;;;4987132;28;20250;-76
2023/12/22 03:51:15;;;;;;;0.20;0.20;;;;;;;;;;4977022;28;20521;-77
2023/12/22 03:53:42;;;;;;;0.20;0.20;;;;;;;;;;4987410;28;20199;-77
2023/12/22 03:56:08;;;;;;;0.20;0.20;;;;;;;;;;4977162;28;20258;-77
2023/12/22 03:58:35;;;;;;;0.10;0.10;;;;;;;;;;4987059;28;20253;-77
2023/12/22 04:01:01;;;;;;;0.20;0.20;;;;;;;;;;4977348;28;20305;-77
2023/12/22 04:03:27;;;;;;;0.20;0.20;;;;;;;;;;4986931;28;20230;-77
2023/12/22 04:05:55;;;;;;;0.30;0.30;;;;;;;;;;4976929;28;20242;-78
2023/12/22 04:08:22;;;;;;;0.10;0.10;;;;;;;;;;4986857;28;20210;-78
2023/12/22 04:10:52;;;;;;;0.20;0.20;;;;;;;;;;4976954;28;20270;-77
2023/12/22 04:13:18;;;;;;;0.20;0.20;;;;;;;;;;4986915;28;20198;-77
2023/12/22 04:15:44;;;;;;;0.20;0.20;;;;;;;;;;4976817;28;20277;-77
2023/12/22 04:18:11;;;;;;;0.20;0.20;;;;;;;;;;4986123;28;20258;-77
2023/12/22 04:20:37;;;;;;;0.20;0.20;;;;;;;;;;4976850;28;20258;-77
2023/12/22 04:23:05;;;;;;;0.20;0.20;;;;;;;;;;4986305;28;20398;-76
2023/12/22 04:25:32;;;;;;;0.30;0.30;;;;;;;;;;4976826;28;20254;-77
2023/12/22 04:27:58;;;;;;;0.20;0.20;;;;;;;;;;4986303;28;20261;-75
2023/12/22 04:30:26;;;;;;;0.20;0.20;;;;;;;;;;4976729;28;20246;-77
2023/12/22 04:32:52;;;;;;;0.20;0.20;;;;;;;;;;4986093;28;20230;-77
2023/12/22 04:35:18;;;;;;;0.20;0.20;;;;;;;;;;4977064;28;20207;-77
2023/12/22 04:37:45;;;;;;;0.20;0.20;;;;;;;;;;4985791;28;20217;-78
2023/12/22 04:40:13;;;;;;;0.20;0.20;;;;;;;;;;4976677;28;20230;-77
2023/12/22 04:42:39;;;;;;;0.20;0.20;;;;;;;;;;4985757;28;20242;-76
2023/12/22 04:45:06;;;;;;;0.20;0.20;;;;;;;;;;4986897;28;20401;-77
2023/12/22 04:47:33;;;;;;;0.20;0.20;;;;;;;;;;4975565;28;20251;-76
2023/12/22 04:50:00;;;;;;;0.20;0.20;;;;;;;;;;4986455;28;20206;-77
2023/12/22 04:52:26;;;;;;;0.20;0.20;;;;;;;;;;4975494;28;20302;-77
2023/12/22 04:54:53;;;;;;;0.20;0.20;;;;;;;;;;4986482;28;20238;-77
2023/12/22 04:57:21;;;;;;;0.20;0.20;;;;;;;;;;4975452;28;20460;-76
2023/12/22 04:59:48;;;;;;;0.20;0.20;;;;;;;;;;4986241;28;20233;-77
2023/12/22 05:02:14;;;;;;;0.20;0.20;;;;;;;;;;4975014;28;20243;-76
2023/12/22 05:04:41;;;;;;;0.20;0.20;;;;;;;;;;4985980;28;20245;-77
2023/12/22 05:07:09;;;;;;;0.20;0.20;;;;;;;;;;4975162;28;20242;-76
2023/12/22 05:09:35;;;;;;;0.20;0.20;;;;;;;;;;4986371;28;20376;-76
2023/12/22 05:12:02;;;;;;;0.20;0.20;;;;;;;;;;4975332;28;20242;-77
2023/12/22 05:14:30;;;;;;;0.20;0.20;;;;;;;;;;4986320;28;20246;-76
2023/12/22 05:16:56;;;;;;;0.20;0.20;;;;;;;;;;4975156;28;20243;-76
2023/12/22 05:19:23;;;;;;;0.20;0.20;;;;;;;;;;4986131;28;20227;-76
2023/12/22 05:21:49;;;;;;;0.20;0.20;;;;;;;;;;4975205;28;20261;-77
2023/12/22 05:24:16;;;;;;;0.20;0.20;;;;;;;;;;4986087;28;20390;-77
2023/12/22 05:26:42;;;;;;;0.20;0.20;;;;;;;;;;4975151;28;20242;-77
2023/12/22 05:29:09;;;;;;;0.20;0.20;;;;;;;;;;4984793;28;20210;-77
2023/12/22 05:31:37;;;;;;;0.20;0.20;;;;;;;;;;4975153;28;20242;-76
2023/12/22 05:34:03;;;;;;;0.20;0.20;;;;;;;;;;4985766;28;20237;-77
2023/12/22 05:36:30;;;;;;;0.20;0.20;;;;;;;;;;4974945;28;20248;-77
2023/12/22 05:38:56;;;;;;;0.20;0.20;;;;;;;;;;4985402;28;20209;-77
2023/12/22 05:41:22;;;;;;;0.20;0.20;;;;;;;;;;4974988;28;20261;-77
2023/12/22 05:43:49;;;;;;;0.20;0.20;;;;;;;;;;4985008;28;20211;-76
2023/12/22 05:46:15;;;;;;;0.20;0.20;;;;;;;;;;4974938;28;20271;-77
2023/12/22 05:48:43;;;;;;;0.20;0.20;;;;;;;;;;4985284;28;20206;-77
2023/12/22 05:51:13;;;;;;;0.20;0.20;;;;;;;;;;4974776;28;20259;-76
2023/12/22 05:53:39;;;;;;;0.20;0.20;;;;;;;;;;4984893;28;20434;-77
2023/12/22 05:56:06;;;;;;;0.20;0.20;;;;;;;;;;4974604;28;20252;-78
2023/12/22 05:58:33;;;;;;;0.20;0.20;;;;;;;;;;4985093;28;20198;-77
2023/12/22 06:00:59;;;;;;;0.20;0.20;;;;;;;;;;4974535;28;20565;-78
2023/12/22 06:03:26;;;;;;;0.20;0.20;;;;;;;;;;4984353;28;20253;-77
2023/12/22 06:05:54;;;;;;;0.20;0.20;;;;;;;;;;4974680;28;20565;-77
2023/12/22 06:08:20;;;;;;;0.20;0.20;;;;;;;;;;4984750;28;20211;-77
2023/12/22 06:10:53;;;;;;;0.20;0.20;;;;;;;;;;4974868;28;20245;-77
2023/12/22 06:13:19;;;;;;;0.20;0.20;;;;;;;;;;4984615;28;20200;-78
2023/12/22 06:15:46;;;;;;;0.20;0.20;;;;;;;;;;4974995;28;20257;-76
2023/12/22 06:18:12;;;;;;;0.20;0.20;;;;;;;;;;4984196;28;20211;-77
2023/12/22 06:20:39;;;;;;;0.20;0.20;;;;;;;;;;4974599;28;20268;-77
2023/12/22 06:23:07;;;;;;;0.30;0.30;;;;;;;;;;4984313;28;20210;-77
2023/12/22 06:25:33;;;;;;;0.20;0.20;;;;;;;;;;4974456;28;20257;-77
2023/12/22 06:27:59;;;;;;;0.20;0.20;;;;;;;;;;4984213;28;20237;-78
2023/12/22 06:30:26;;;;;;;0.30;0.30;;;;;;;;;;4974443;28;20401;-76
2023/12/22 06:32:53;;;;;;;0.20;0.20;;;;;;;;;;4983962;28;20199;-77
2023/12/22 06:35:23;;;;;;;0.20;0.20;;;;;;;;;;4974581;28;20237;-77
2023/12/22 06:37:49;;;;;;;0.20;0.20;;;;;;;;;;4983930;28;20517;-77
2023/12/22 06:40:18;;;;;;;0.20;0.20;;;;;;;;;;4974680;28;20296;-77
2023/12/22 06:42:45;;;;;;;0.20;0.20;;;;;;;;;;4983659;28;20217;-77
2023/12/22 06:45:11;;;;;;;0.27;0.27;;;;;;;;;;4974392;28;20269;-77
2023/12/22 06:47:38;;;;;;;0.20;0.20;;;;;;;;;;4983597;28;20497;-77
2023/12/22 06:50:05;;;;;;;0.20;0.20;;;;;;;;;;4984471;28;20206;-77
2023/12/22 06:52:31;;;;;;;0.20;0.20;;;;;;;;;;4973805;28;20469;-77
2023/12/22 06:54:58;;;;;;;0.20;0.20;;;;;;;;;;4984693;28;20234;-76
2023/12/22 06:57:25;;;;;;;0.20;0.20;;;;;;;;;;4973643;28;20297;-76
2023/12/22 06:59:52;;;;;;;0.20;0.20;;;;;;;;;;4984308;28;20231;-77
2023/12/22 07:02:18;;;;;;;0.17;0.17;;;;;;;;;;4973665;28;20354;-77
2023/12/22 07:05:06;;;;;;;0.20;0.20;;;;;;;;;;4984333;28;20257;-77
2023/12/22 07:07:32;;;;;;;0.20;0.20;;;;;;;;;;4973468;28;20284;-77
2023/12/22 07:09:58;;;;;;;0.30;0.30;;;;;;;;;;4984419;28;20513;-78
2023/12/22 07:12:26;;;;;;;0.20;0.20;;;;;;;;;;4973482;28;20253;-78
2023/12/22 07:14:53;;;;;;;0.20;0.20;;;;;;;;;;4984301;28;20207;-77
2023/12/22 07:17:19;;;;;;;0.20;0.20;;;;;;;;;;4973437;28;20446;-77
2023/12/22 07:19:45;;;;;;;0.20;0.20;;;;;;;;;;4984197;28;20249;-78
2023/12/22 07:22:12;;;;;;;0.20;0.20;;;;;;;;;;4973217;28;20238;-78
2023/12/22 07:24:38;;;;;;;0.20;0.20;;;;;;;;;;4984462;28;20246;-77
2023/12/22 07:27:05;;;;;;;0.20;0.20;;;;;;;;;;4973325;28;20264;-77
2023/12/22 07:29:33;;;;;;;0.20;0.20;;;;;;;;;;4984643;28;20199;-77
2023/12/22 07:31:59;;;;;;;0.20;0.20;;;;;;;;;;4973405;28;20243;-77
2023/12/22 07:34:26;;;;;;;0.20;0.20;;;;;;;;;;4984555;28;20273;-77
2023/12/22 07:36:53;;;;;;;0.20;0.20;;;;;;;;;;4973582;28;20502;-77
2023/12/22 07:39:19;;;;;;;0.20;0.20;;;;;;;;;;4984506;28;20207;-77
2023/12/22 07:41:46;;;;;;;0.20;0.20;;;;;;;;;;4973360;28;20247;-76
2023/12/22 07:44:12;;;;;;;0.10;0.10;;;;;;;;;;4984396;28;20238;-76
2023/12/22 07:46:40;;;;;;;0.20;0.20;;;;;;;;;;4973209;28;20342;-76
2023/12/22 07:49:07;;;;;;;0.20;0.20;;;;;;;;;;4984259;28;20210;-77
2023/12/22 07:51:33;;;;;;;0.20;0.20;;;;;;;;;;4974100;28;20249;-76
2023/12/22 07:53:59;;;;;;;0.20;0.20;;;;;;;;;;4987704;28;20405;-77
2023/12/22 07:56:26;;;;;;;0.20;0.20;;;;;;;;;;4977031;28;20249;-77
2023/12/22 07:58:53;;;;;;;0.20;0.20;;;;;;;;;;4987297;28;20210;-77
2023/12/22 08:01:19;;;;;;;0.20;0.20;;;;;;;;;;4977013;28;20507;-76
2023/12/22 08:03:47;;;;;;;0.20;0.20;;;;;;;;;;4987365;28;20222;-77
2023/12/22 08:06:14;;;;;;;0.20;0.20;;;;;;;;;;4976792;28;20245;-76
2023/12/22 08:08:40;;;;;;;0.17;0.17;;;;;;;;;;4987001;28;20209;-77
2023/12/22 08:11:08;;;;;;;0.20;0.20;;;;;;;;;;4976778;28;20313;-77
2023/12/22 08:13:34;;;;;;;0.20;0.20;;;;;;;;;;4987444;28;20214;-77
2023/12/22 08:16:00;;;;;;;0.10;0.10;;;;;;;;;;4976766;28;20247;-76
2023/12/22 08:18:27;;;;;;;0.20;0.20;;;;;;;;;;4987128;28;20199;-77
2023/12/22 08:20:55;;;;;;;0.20;0.20;;;;;;;;;;4976631;28;20310;-77
2023/12/22 08:23:21;;;;;;;0.20;0.20;;;;;;;;;;4986572;28;20253;-77
2023/12/22 08:25:47;;;;;;;0.20;0.20;;;;;;;;;;4976907;28;20521;-77
2023/12/22 08:28:14;;;;;;;0.20;0.20;;;;;;;;;;4986800;28;20274;-77
2023/12/22 08:30:40;;;;;;;0.17;0.17;;;;;;;;;;4976868;28;20563;-76
2023/12/22 08:33:07;;;;;;;0.20;0.20;;;;;;;;;;4986463;28;20212;-76
2023/12/22 08:35:34;;;;;;;0.20;0.20;;;;;;;;;;4976757;28;20258;-77
2023/12/22 08:38:02;;;;;;;0.20;0.20;;;;;;;;;;4986286;28;20211;-77
2023/12/22 08:40:28;;;;;;;0.20;0.20;;;;;;;;;;4976556;28;20298;-77
2023/12/22 08:42:59;;;;;;;0.20;0.20;;;;;;;;;;4986117;28;20242;-77
2023/12/22 08:45:26;;;;;;;0.20;0.20;;;;;;;;;;4976785;28;20478;-77
2023/12/22 08:47:53;;;;;;;0.20;0.20;;;;;;;;;;4985780;28;20213;-77
2023/12/22 08:50:19;;;;;;;0.20;0.20;;;;;;;;;;4976561;28;20474;-77
2023/12/22 08:52:46;;;;;;;0.20;0.20;;;;;;;;;;4985689;28;20208;-77
2023/12/22 08:55:14;;;;;;;0.20;0.20;;;;;;;;;;4976294;28;20207;-77
2023/12/22 08:57:40;;;;;;;0.20;0.20;;;;;;;;;;4985588;28;20204;-76
2023/12/22 09:00:07;;;;;;;0.20;0.20;;;;;;;;;;4986195;28;20569;-76
2023/12/22 09:02:34;;;;;;;0.10;0.10;;;;;;;;;;4958851;28;20215;-77
2023/12/22 09:05:00;;;;;;;0.20;0.20;;;;;;;;;;4985575;28;20238;-77
2023/12/22 09:07:27;;;;;;;0.20;0.20;;;;;;;;;;4975190;28;20454;-77
2023/12/22 09:09:53;;;;;;;0.20;0.20;;;;;;;;;;4986484;28;20206;-78
2023/12/22 09:12:21;;;;;;;0.20;0.20;;;;;;;;;;4975069;28;20253;-77
2023/12/22 09:14:47;;;;;;;0.20;0.20;;;;;;;;;;4986010;28;20210;-76
2023/12/22 09:17:14;;;;;;;0.20;0.20;;;;;;;;;;4974853;28;20249;-76
2023/12/22 09:19:42;;;;;;;0.20;0.20;;;;;;;;;;4986083;28;20213;-76
2023/12/22 09:22:09;;;;;;;0.20;0.20;;;;;;;;;;4975031;28;20492;-76
2023/12/22 09:24:35;;;;;;;0.20;0.20;;;;;;;;;;4986364;28;20211;-76
2023/12/22 09:27:02;;;;;;;0.20;0.20;;;;;;;;;;4975154;28;20473;-76
2023/12/22 09:29:31;;;;;;;0.20;0.20;;;;;;;;;;4986218;28;20209;-76
2023/12/22 09:31:58;;;;;;;0.20;0.20;;;;;;;;;;4974993;28;20471;-76
2023/12/22 09:34:27;;;;;;;0.20;0.20;;;;;;;;;;4986210;28;20195;-76
2023/12/22 09:36:53;;;;;;;0.30;0.30;;;;;;;;;;4974940;28;20243;-77
2023/12/22 09:39:19;;;;;;;0.20;0.20;;;;;;;;;;4985783;28;20209;-77
2023/12/22 09:41:48;;;;;;;0.20;0.20;;;;;;;;;;4974647;28;20249;-76
2023/12/22 09:44:15;;;;;;;0.20;0.20;;;;;;;;;;4986091;28;20248;-76
2023/12/22 09:46:43;;;;;;;0.30;0.30;;;;;;;;;;4974904;28;20244;-76
2023/12/22 09:49:10;;;;;;;0.20;0.20;;;;;;;;;;4985781;28;20281;-76
2023/12/22 09:51:37;;;;;;;0.20;0.20;;;;;;;;;;4975028;28;20306;-77
2023/12/22 09:54:04;;;;;;;0.20;0.20;;;;;;;;;;4985751;28;20206;-76
2023/12/22 09:56:31;;;;;;;0.20;0.20;;;;;;;;;;4974994;28;20264;-77
2023/12/22 09:58:58;;;;;;;0.20;0.20;;;;;;;;;;4985849;28;20802;-77
2023/12/22 10:01:25;;;;;;;0.20;0.20;;;;;;;;;;4974749;28;20251;-76
2023/12/22 10:03:53;;;;;;;0.20;0.20;;;;;;;;;;4984870;28;20269;-76
2023/12/22 10:06:19;;;;;;;0.20;0.20;;;;;;;;;;4974706;28;20254;-76
2023/12/22 10:08:47;;;;;;;0.20;0.20;;;;;;;;;;4985421;28;20226;-76
2023/12/22 10:11:14;;;;;;;0.20;0.20;;;;;;;;;;4974362;28;20305;-76
2023/12/22 10:13:41;;;;;;;0.20;0.20;;;;;;;;;;4985227;28;20244;-76
2023/12/22 10:16:08;;;;;;;0.20;0.20;;;;;;;;;;4974444;28;20442;-76
2023/12/22 10:18:34;;;;;;;0.20;0.20;;;;;;;;;;4985247;28;20230;-76
2023/12/22 10:21:02;;;;;;;0.20;0.20;;;;;;;;;;4974836;28;20306;-77
2023/12/22 10:23:28;;;;;;;0.20;0.20;;;;;;;;;;4984792;28;20217;-77
2023/12/22 10:25:55;;;;;;;0.17;0.17;;;;;;;;;;4974788;28;20245;-77
2023/12/22 10:28:24;;;;;;;0.10;0.10;;;;;;;;;;4984159;28;20210;-77
2023/12/22 10:30:51;;;;;;;0.20;0.20;;;;;;;;;;4974698;28;20253;-77
2023/12/22 10:33:18;;;;;;;0.10;0.10;;;;;;;;;;4984514;28;20282;-78
2023/12/22 10:35:45;;;;;;;0.10;0.10;;;;;;;;;;4974371;28;20258;-77
2023/12/22 10:38:13;;;;;;;0.10;0.10;;;;;;;;;;4984285;28;20231;-77
2023/12/22 10:40:39;;;;;;;0.10;0.10;;;;;;;;;;4974666;28;20449;-77
2023/12/22 10:43:06;;;;;;;0.10;0.10;;;;;;;;;;4984248;28;20235;-77
2023/12/22 10:45:32;;;;;;;0.20;0.20;;;;;;;;;;4974444;28;20247;-78
2023/12/22 10:47:59;;;;;;;0.10;0.10;;;;;;;;;;4984044;28;20216;-77
2023/12/22 10:50:26;;;;;;;0.17;0.17;;;;;;;;;;4974467;28;20216;-78
2023/12/22 10:52:52;;;;;;;0.10;0.10;;;;;;;;;;4983633;28;20213;-77
2023/12/22 10:55:20;;;;;;;0.10;0.10;;;;;;;;;;4974545;28;20576;-77
2023/12/22 10:57:47;;;;;;;0.10;0.10;;;;;;;;;;4983754;28;20228;-77
2023/12/22 11:00:16;;;;;;;0.13;0.13;;;;;;;;;;4974683;28;20216;-77
2023/12/22 11:02:43;;;;;;;0.10;0.10;;;;;;;;;;4983696;28;20282;-80
2023/12/22 11:05:13;;;;;;;0.10;0.10;;;;;;;;;;4983654;28;20234;-80
2023/12/22 11:07:41;;;;;;;0.13;0.13;;;;;;;;;;4983579;28;20218;-76
2023/12/22 11:10:08;;;;;;;0.20;0.20;;;;;;;;;;4984841;28;20211;-81
2023/12/22 11:12:37;;;;;;;0.20;0.20;;;;;;;;;;4957870;28;20218;-77
2023/12/22 11:15:06;;;;;;;0.10;0.10;;;;;;;;;;4984923;28;20247;-81
2023/12/22 11:17:33;;;;;;;0.13;0.13;;;;;;;;;;4973564;28;20256;-79
2023/12/22 11:20:00;;;;;;;0.10;0.10;;;;;;;;;;4984957;28;20206;-78
2023/12/22 11:22:26;;;;;;;0.17;0.17;;;;;;;;;;4973360;28;20314;-80
2023/12/22 11:24:53;;;;;;;0.13;0.13;;;;;;;;;;4984557;28;20207;-77
2023/12/22 11:27:20;;;;;;;0.20;0.20;;;;;;;;;;4975302;28;20270;-75
2023/12/22 11:29:49;;;;;;;0.17;0.17;;;;;;;;;;4988513;28;20234;-76
2023/12/22 11:32:16;;;;;;;0.17;0.17;;;;;;;;;;4977268;28;20245;-79
2023/12/22 11:34:43;;;;;;;0.20;0.20;;;;;;;;;;4988164;28;20449;-79
2023/12/22 11:37:10;;;;;;;0.20;0.20;;;;;;;;;;4977179;28;20242;-78
2023/12/22 11:39:37;;;;;;;0.10;0.10;;;;;;;;;;4988347;28;20236;-79
2023/12/22 11:42:05;;;;;;;0.10;0.10;;;;;;;;;;4976866;28;20241;-79
2023/12/22 11:44:31;;;;;;;0.20;0.20;;;;;;;;;;4987976;28;20208;-79
2023/12/22 11:47:05;;;;;;;0.10;0.10;;;;;;;;;;4977028;28;20241;-79
2023/12/22 11:49:33;;;;;;;0.20;0.20;;;;;;;;;;4987898;28;20208;-80
2023/12/22 11:52:00;;;;;;;0.20;0.20;;;;;;;;;;4976492;28;20240;-79
2023/12/22 11:54:45;;;;;;;0.20;0.20;;;;;;;;;;4987532;28;20277;-79
2023/12/22 11:57:27;;;;;;;0.20;0.20;;;;;;;;;;4976492;28;20256;-79
2023/12/22 11:59:53;;;;;;;0.20;0.20;;;;;;;;;;4987448;28;20231;-80
2023/12/22 12:02:21;;;;;;;0.20;0.20;;;;;;;;;;4976695;28;20259;-79
2023/12/22 12:04:48;;;;;;;0.20;0.20;;;;;;;;;;4987303;28;20253;-78
2023/12/22 12:07:29;;;;;;;0.20;0.20;;;;;;;;;;4976553;28;20305;-78
2023/12/22 12:09:55;;;;;;;0.20;0.20;;;;;;;;;;4971335;28;20459;-78
2023/12/22 12:12:24;;;;;;;0.20;0.20;;;;;;;;;;4976762;28;20327;-80
2023/12/22 12:14:54;;;;;;;0.20;0.20;;;;;;;;;;4987575;28;20231;-81
2023/12/22 12:17:22;;;;;;;0.20;0.20;;;;;;;;;;4976346;28;20311;-81
2023/12/22 12:19:49;;;;;;;0.10;0.10;;;;;;;;;;4987342;28;20280;-81
2023/12/22 12:22:15;;;;;;;0.20;0.20;;;;;;;;;;4976054;28;20389;-80
2023/12/22 12:24:42;;;;;;;0.20;0.20;;;;;;;;;;4987218;28;20204;-81
2023/12/22 12:27:08;;;;;;;0.13;0.13;;;;;;;;;;4976194;28;20266;-81
2023/12/22 12:29:35;;;;;;;0.20;0.20;;;;;;;;;;4987512;28;20238;-81
2023/12/22 12:32:05;;;;;;;0.20;0.20;;;;;;;;;;4976321;28;20238;-81
2023/12/22 12:34:33;;;;;;;0.20;0.20;;;;;;;;;;4987427;28;20207;-81
2023/12/22 12:36:59;;;;;;;0.20;0.20;;;;;;;;;;4976062;28;20338;-81
2023/12/22 12:39:29;;;;;;;0.20;0.20;;;;;;;;;;4986826;28;20198;-80
2023/12/22 12:41:56;;;;;;;0.20;0.20;;;;;;;;;;4976039;28;20262;-80
2023/12/22 12:44:24;;;;;;;0.20;0.20;;;;;;;;;;4986826;28;20234;-81
2023/12/22 12:46:50;;;;;;;0.20;0.20;;;;;;;;;;4975980;28;20255;-81
2023/12/22 12:49:16;;;;;;;0.20;0.20;;;;;;;;;;4986536;28;20234;-82
2023/12/22 12:51:46;;;;;;;0.20;0.20;;;;;;;;;;4975993;28;20240;-81
2023/12/22 12:54:12;;;;;;;0.20;0.20;;;;;;;;;;4986487;28;20206;-81
2023/12/22 12:56:40;;;;;;;0.20;0.20;;;;;;;;;;4975910;28;20247;-81
2023/12/22 12:59:08;;;;;;;0.20;0.20;;;;;;;;;;4986357;28;20199;-81
2023/12/22 13:01:38;;;;;;;0.20;0.20;;;;;;;;;;4975658;28;20240;-81
2023/12/22 13:04:05;;;;;;;0.20;0.20;;;;;;;;;;4986088;28;20309;-82
2023/12/22 13:06:31;;;;;;;0.20;0.20;;;;;;;;;;4975906;28;20258;-81
2023/12/22 13:08:59;;;;;;;0.20;0.20;;;;;;;;;;4986444;28;20236;-81
2023/12/22 13:11:26;;;;;;;0.17;0.17;;;;;;;;;;4975756;28;20245;-81
2023/12/22 13:13:53;;;;;;;0.17;0.17;;;;;;;;;;4985892;28;20201;-81
2023/12/22 13:16:20;;;;;;;0.20;0.20;;;;;;;;;;4975687;28;20243;-82
2023/12/22 13:18:45;;;;;;;0.20;0.20;;;;;;;;;;4985657;28;20266;-81
2023/12/22 13:21:12;;;;;;;0.20;0.20;;;;;;;;;;4975790;28;20618;-81
2023/12/22 13:23:38;;;;;;;0.20;0.20;;;;;;;;;;4985761;28;20282;-81
2023/12/22 13:26:06;;;;;;;0.20;0.20;;;;;;;;;;4975755;28;20246;-80
2023/12/22 13:28:32;;;;;;;0.20;0.20;;;;;;;;;;4985851;28;20202;-81
2023/12/22 13:30:59;;;;;;;0.20;0.20;;;;;;;;;;4975748;28;20439;-81
2023/12/22 13:33:28;;;;;;;0.20;0.20;;;;;;;;;;4985590;28;20202;-81
2023/12/22 13:35:57;;;;;;;0.20;0.20;;;;;;;;;;4975419;28;20243;-81
2023/12/22 13:38:23;;;;;;;0.20;0.20;;;;;;;;;;4985458;28;20207;-81
2023/12/22 13:40:50;;;;;;;0.20;0.20;;;;;;;;;;4975784;28;20490;-80
2023/12/22 13:43:18;;;;;;;0.20;0.20;;;;;;;;;;4985250;28;20288;-81
2023/12/22 13:45:50;;;;;;;0.20;0.20;;;;;;;;;;4975718;28;20589;-81
2023/12/22 13:48:17;;;;;;;0.20;0.20;;;;;;;;;;4985208;28;20269;-81
2023/12/22 13:50:43;;;;;;;0.20;0.20;;;;;;;;;;4974814;28;20315;-81
2023/12/22 13:53:10;;;;;;;0.20;0.20;;;;;;;;;;4984861;28;20262;-81
2023/12/22 13:55:37;;;;;;;0.20;0.20;;;;;;;;;;4975408;28;20242;-81
2023/12/22 13:58:04;;;;;;;0.20;0.20;;;;;;;;;;4984947;28;20433;-81
2023/12/22 14:00:32;;;;;;;0.20;0.20;;;;;;;;;;4975360;28;20242;-81
2023/12/22 14:02:59;;;;;;;0.20;0.20;;;;;;;;;;4984632;28;20266;-82
2023/12/22 14:05:25;;;;;;;0.10;0.10;;;;;;;;;;4975088;28;20438;-81
2023/12/22 14:07:52;;;;;;;0.10;0.10;;;;;;;;;;4984683;28;20213;-81
2023/12/22 14:10:18;;;;;;;0.10;0.10;;;;;;;;;;4975235;28;20207;-81
2023/12/22 14:12:44;;;;;;;0.10;0.10;;;;;;;;;;4984486;28;20230;-81
2023/12/22 14:15:11;;;;;;;0.20;0.20;;;;;;;;;;4975202;28;20215;-81
2023/12/22 14:17:41;;;;;;;0.20;0.20;;;;;;;;;;4984166;28;20244;-81
2023/12/22 14:20:09;;;;;;;0.10;0.10;;;;;;;;;;4985139;28;20199;-80
2023/12/22 14:22:36;;;;;;;0.20;0.20;;;;;;;;;;4958066;28;20294;-81
2023/12/22 14:25:03;;;;;;;0.20;0.20;;;;;;;;;;4985093;28;20246;-81
2023/12/22 14:27:30;;;;;;;0.10;0.10;;;;;;;;;;4973987;28;20242;-81
2023/12/22 14:29:56;;;;;;;0.20;0.20;;;;;;;;;;4984946;28;20211;-81
2023/12/22 14:32:23;;;;;;;0.20;0.20;;;;;;;;;;4974066;28;20258;-81
2023/12/22 14:34:50;;;;;;;0.20;0.20;;;;;;;;;;4985224;28;20512;-80
2023/12/22 14:37:17;;;;;;;0.20;0.20;;;;;;;;;;4974014;28;20242;-81
2023/12/22 14:39:43;;;;;;;0.13;0.13;;;;;;;;;;4984917;28;20282;-78
2023/12/22 14:42:10;;;;;;;0.20;0.20;;;;;;;;;;4973949;28;20422;-79